createdAt,value
2023-02-19T00:01:36.243Z,86.12
2023-02-19T00:04:07.368Z,86.31
2023-02-19T00:06:35.342Z,86.31
2023-02-19T00:09:03.018Z,85.77
2023-02-19T00:11:32.715Z,85.68
2023-02-19T00:14:00.969Z,85.87
2023-02-19T00:16:36.750Z,85.74
2023-02-19T00:19:07.621Z,85.95
2023-02-19T00:21:34.624Z,85.83
2023-02-19T00:24:03.628Z,85.49
2023-02-19T00:26:31.112Z,85.43
2023-02-19T00:28:59.265Z,85.51
2023-02-19T00:31:27.629Z,85.28
2023-02-19T00:33:57.685Z,85.72
2023-02-19T00:36:26.308Z,85.92
2023-02-19T00:38:53.335Z,86.27
2023-02-19T00:41:20.999Z,86.56
2023-02-19T00:43:49.580Z,86.71
2023-02-19T00:46:19.158Z,86.75
2023-02-19T00:48:46.959Z,87.01
2023-02-19T00:51:14.855Z,86.99
2023-02-19T00:53:42.662Z,86.80
2023-02-19T00:56:10.006Z,85.67
2023-02-19T00:58:37.569Z,86.50
2023-02-19T01:01:06.117Z,86.96
2023-02-19T01:03:34.333Z,87.10
2023-02-19T01:06:02.433Z,87.33
2023-02-19T01:08:33.044Z,87.43
2023-02-19T01:11:04.542Z,87.50
2023-02-19T01:13:32.300Z,87.64
2023-02-19T01:16:05.946Z,87.66
2023-02-19T01:18:33.622Z,87.70
2023-02-19T01:21:08.686Z,87.73
2023-02-19T01:23:40.199Z,87.53
2023-02-19T01:26:12.794Z,87.11
2023-02-19T01:28:40.498Z,86.97
2023-02-19T01:31:10.565Z,87.10
2023-02-19T01:33:37.681Z,87.50
2023-02-19T01:36:06.398Z,87.69
2023-02-19T01:38:33.353Z,87.86
2023-02-19T01:41:02.861Z,88.01
2023-02-19T01:43:32.840Z,87.81
2023-02-19T01:45:59.991Z,87.50
2023-02-19T01:48:37.711Z,87.56
2023-02-19T01:51:06.592Z,88.02
2023-02-19T01:53:38.745Z,88.01
2023-02-19T01:56:06.919Z,88.23
2023-02-19T01:58:39.156Z,88.27
2023-02-19T02:01:08.100Z,88.25
2023-02-19T02:03:37.585Z,88.31
2023-02-19T02:06:21.609Z,88.40
2023-02-19T02:09:13.565Z,88.25
2023-02-19T02:11:47.993Z,88.33
2023-02-19T02:14:18.066Z,88.41
2023-02-19T02:17:03.928Z,88.32
2023-02-19T02:20:05.099Z,88.42
2023-02-19T02:22:41.803Z,88.23
2023-02-19T02:25:26.974Z,88.18
2023-02-19T02:28:06.326Z,87.55
2023-02-19T02:30:42.276Z,87.45
2023-02-19T02:33:27.978Z,87.29
2023-02-19T02:36:24.032Z,87.29
2023-02-19T02:38:53.502Z,87.02
2023-02-19T02:41:21.626Z,86.91
2023-02-19T02:43:48.779Z,86.99
2023-02-19T02:46:19.485Z,86.88
2023-02-19T02:49:03.299Z,86.81
2023-02-19T02:51:38.183Z,86.48
2023-02-19T02:54:42.046Z,86.01
2023-02-19T02:57:15.543Z,85.59
2023-02-19T02:59:48.621Z,85.18
2023-02-19T03:02:22.690Z,85.08
2023-02-19T03:05:14.348Z,84.74
2023-02-19T03:08:10.890Z,84.42
2023-02-19T03:10:46.253Z,84.29
2023-02-19T03:13:51.911Z,84.32
2023-02-19T03:16:49.027Z,84.35
2023-02-19T03:19:19.920Z,83.12
2023-02-19T03:22:10.340Z,82.70
2023-02-19T03:25:09.111Z,82.42
2023-02-19T03:27:39.194Z,82.18
2023-02-19T03:30:14.129Z,81.66
2023-02-19T03:33:08.157Z,81.88
2023-02-19T03:35:44.501Z,80.94
2023-02-19T03:38:23.885Z,80.89
2023-02-19T03:41:13.333Z,80.83
2023-02-19T03:43:52.112Z,80.60
2023-02-19T03:46:41.588Z,80.66
2023-02-19T03:49:43.689Z,80.89
2023-02-19T03:52:21.139Z,81.81
2023-02-19T03:55:15.874Z,80.61
2023-02-19T03:57:46.048Z,81.35
2023-02-19T04:00:24.998Z,82.08
2023-02-19T04:03:00.237Z,81.23
2023-02-19T04:05:35.492Z,81.14
2023-02-19T04:08:16.576Z,80.96
2023-02-19T04:10:49.210Z,80.72
2023-02-19T04:13:27.477Z,81.07
2023-02-19T04:16:00.297Z,80.99
2023-02-19T04:18:33.869Z,81.17
2023-02-19T04:21:02.833Z,81.30
2023-02-19T04:23:37.103Z,81.07
2023-02-19T04:26:06.049Z,81.77
2023-02-19T04:28:33.676Z,82.55
2023-02-19T04:31:01.669Z,82.47
2023-02-19T04:33:28.472Z,82.64
2023-02-19T04:35:55.476Z,82.22
2023-02-19T04:38:22.418Z,82.74
2023-02-19T04:40:50.883Z,82.59
2023-02-19T04:43:18.596Z,82.56
2023-02-19T04:45:45.404Z,82.88
2023-02-19T04:48:12.275Z,82.64
2023-02-19T04:50:40.380Z,82.65
2023-02-19T04:53:07.469Z,82.63
2023-02-19T04:55:38.783Z,82.39
2023-02-19T04:58:05.870Z,82.08
2023-02-19T05:00:33.412Z,82.55
2023-02-19T05:03:00.687Z,82.40
2023-02-19T05:05:27.682Z,82.63
2023-02-19T05:07:54.503Z,82.18
2023-02-19T05:10:21.524Z,82.12
2023-02-19T05:12:48.654Z,82.96
2023-02-19T05:15:16.026Z,83.01
2023-02-19T05:17:43.063Z,82.92
2023-02-19T05:20:10.030Z,83.10
2023-02-19T05:22:36.995Z,82.66
2023-02-19T05:25:04.727Z,82.15
2023-02-19T05:27:32.319Z,82.38
2023-02-19T05:30:01.256Z,82.28
2023-02-19T05:32:28.407Z,82.46
2023-02-19T05:34:55.248Z,82.44
2023-02-19T05:37:22.372Z,82.70
2023-02-19T05:39:49.687Z,83.10
2023-02-19T05:42:16.842Z,83.66
2023-02-19T05:44:43.882Z,84.20
2023-02-19T05:47:10.992Z,84.57
2023-02-19T05:49:37.855Z,84.86
2023-02-19T05:52:05.093Z,85.02
2023-02-19T05:54:32.257Z,85.17
2023-02-19T05:56:59.544Z,84.85
2023-02-19T05:59:27.797Z,85.06
2023-02-19T06:01:55.173Z,85.28
2023-02-19T06:04:22.884Z,85.33
2023-02-19T06:06:50.752Z,85.26
2023-02-19T06:09:18.045Z,85.45
2023-02-19T06:11:45.042Z,85.43
2023-02-19T06:14:13.876Z,85.27
2023-02-19T06:16:41.196Z,85.41
2023-02-19T06:19:08.105Z,85.25
2023-02-19T06:21:35.216Z,85.78
2023-02-19T06:24:11.127Z,84.67
2023-02-19T06:26:38.112Z,84.48
2023-02-19T06:29:05.240Z,84.42
2023-02-19T06:31:32.106Z,84.20
2023-02-19T06:34:03.809Z,84.28
2023-02-19T06:36:32.553Z,83.89
2023-02-19T06:39:00.481Z,82.83
2023-02-19T06:41:27.296Z,82.34
2023-02-19T06:43:54.530Z,83.03
2023-02-19T06:46:21.430Z,81.99
2023-02-19T06:48:48.858Z,82.18
2023-02-19T06:51:18.929Z,81.07
2023-02-19T06:53:46.501Z,81.12
2023-02-19T06:56:31.937Z,80.29
2023-02-19T06:59:02.011Z,81.09
2023-02-19T07:01:30.765Z,83.06
2023-02-19T07:03:58.206Z,82.47
2023-02-19T07:06:25.905Z,82.31
2023-02-19T07:08:54.973Z,82.93
2023-02-19T07:11:22.754Z,81.74
2023-02-19T07:13:56.616Z,83.43
2023-02-19T07:16:24.712Z,82.87
2023-02-19T07:18:52.035Z,81.77
2023-02-19T07:21:19.146Z,82.63
2023-02-19T07:23:46.128Z,81.60
2023-02-19T07:26:15.074Z,81.16
2023-02-19T07:28:46.697Z,80.84
2023-02-19T07:31:15.868Z,82.40
2023-02-19T07:33:44.054Z,82.01
2023-02-19T07:36:12.224Z,82.70
2023-02-19T07:38:39.409Z,82.28
2023-02-19T07:41:07.060Z,82.13
2023-02-19T07:43:36.406Z,81.66
2023-02-19T07:46:05.297Z,80.50
2023-02-19T07:48:34.689Z,78.90
2023-02-19T07:51:03.589Z,78.45
2023-02-19T07:53:32.951Z,78.47
2023-02-19T07:56:01.831Z,78.18
2023-02-19T07:58:31.022Z,77.36
2023-02-19T08:01:06.638Z,78.15
2023-02-19T08:03:34.642Z,77.01
2023-02-19T08:06:01.853Z,77.99
2023-02-19T08:08:29.449Z,77.59
2023-02-19T08:11:18.406Z,76.76
2023-02-19T08:13:48.794Z,75.88
2023-02-19T08:16:29.567Z,77.19
2023-02-19T08:19:05.813Z,77.73
2023-02-19T08:21:34.495Z,79.03
2023-02-19T08:24:01.959Z,78.27
2023-02-19T08:26:28.686Z,76.53
2023-02-19T08:28:55.627Z,76.11
2023-02-19T08:31:22.480Z,76.66
2023-02-19T08:33:49.383Z,74.12
2023-02-19T08:36:16.432Z,75.17
2023-02-19T08:38:45.610Z,75.40
2023-02-19T08:41:13.733Z,73.88
2023-02-19T08:43:42.058Z,77.11
2023-02-19T08:46:12.403Z,77.52
2023-02-19T08:48:39.806Z,75.99
2023-02-19T08:51:10.846Z,79.21
2023-02-19T08:53:39.854Z,78.42
2023-02-19T08:56:13.148Z,79.77
2023-02-19T08:58:40.441Z,74.64
2023-02-19T09:01:13.095Z,72.34
2023-02-19T09:03:41.028Z,76.67
2023-02-19T09:06:13.954Z,76.43
2023-02-19T09:08:41.325Z,78.46
2023-02-19T09:11:08.155Z,79.74
2023-02-19T09:13:35.192Z,79.14
2023-02-19T09:16:03.217Z,79.21
2023-02-19T09:18:30.520Z,75.32
2023-02-19T09:21:03.986Z,76.30
2023-02-19T09:23:36.495Z,78.52
2023-02-19T09:26:08.089Z,80.95
2023-02-19T09:28:35.867Z,81.44
2023-02-19T09:31:05.483Z,81.82
2023-02-19T09:33:32.901Z,82.64
2023-02-19T09:36:01.410Z,81.76
2023-02-19T09:38:29.769Z,80.76
2023-02-19T09:40:58.848Z,82.00
2023-02-19T09:43:29.499Z,82.38
2023-02-19T09:46:11.836Z,80.34
2023-02-19T09:48:38.893Z,80.93
2023-02-19T09:51:10.269Z,79.97
2023-02-19T09:53:43.966Z,81.27
2023-02-19T09:56:11.183Z,81.58
2023-02-19T09:58:48.157Z,82.12
2023-02-19T10:01:15.879Z,81.29
2023-02-19T10:03:46.663Z,80.86
2023-02-19T10:06:23.187Z,81.21
2023-02-19T10:08:54.055Z,78.81
2023-02-19T10:11:25.184Z,80.47
2023-02-19T10:14:08.741Z,81.21
2023-02-19T10:16:43.501Z,82.98
2023-02-19T10:19:12.756Z,81.95
2023-02-19T10:21:40.841Z,83.26
2023-02-19T10:24:14.609Z,83.66
2023-02-19T10:26:41.812Z,80.81
2023-02-19T10:29:09.995Z,77.66
2023-02-19T10:31:37.413Z,76.06
2023-02-19T10:34:18.249Z,75.95
2023-02-19T10:36:49.716Z,79.63
2023-02-19T10:39:41.681Z,78.59
2023-02-19T10:42:23.352Z,73.60
2023-02-19T10:44:58.631Z,77.76
2023-02-19T10:47:29.493Z,80.47
2023-02-19T10:50:00.810Z,80.08
2023-02-19T10:52:33.505Z,79.20
2023-02-19T10:55:24.345Z,77.69
2023-02-19T10:57:51.729Z,79.52
2023-02-19T11:00:28.389Z,76.75
2023-02-19T11:03:19.303Z,74.33
2023-02-19T11:06:01.433Z,74.33
2023-02-19T11:08:56.640Z,80.60
2023-02-19T11:11:37.282Z,73.21
2023-02-19T11:14:17.072Z,77.16
2023-02-19T11:16:52.925Z,69.90
2023-02-19T11:19:40.912Z,72.18
2023-02-19T11:22:30.296Z,71.27
2023-02-19T11:25:14.465Z,79.06
2023-02-19T11:28:06.455Z,83.24
2023-02-19T11:30:40.115Z,84.84
2023-02-19T11:33:29.643Z,85.42
2023-02-19T11:36:29.469Z,85.34
2023-02-19T11:39:00.866Z,83.39
2023-02-19T11:41:36.573Z,79.00
2023-02-19T11:44:32.495Z,82.23
2023-02-19T11:47:21.190Z,81.33
2023-02-19T11:50:02.505Z,79.75
2023-02-19T11:53:09.073Z,82.33
2023-02-19T11:55:51.434Z,84.63
2023-02-19T11:58:47.329Z,85.13
2023-02-19T12:01:48.514Z,86.02
2023-02-19T12:04:43.085Z,86.16
2023-02-19T12:07:38.503Z,85.10
2023-02-19T12:10:08.512Z,84.26
2023-02-19T12:12:42.180Z,82.84
2023-02-19T12:15:43.564Z,82.10
2023-02-19T12:18:39.965Z,84.41
2023-02-19T12:21:17.374Z,83.35
2023-02-19T12:23:56.122Z,83.39
2023-02-19T12:26:59.171Z,83.91
2023-02-19T12:29:36.474Z,83.47
2023-02-19T12:32:03.655Z,84.01
2023-02-19T12:34:55.034Z,84.34
2023-02-19T12:37:39.323Z,83.04
2023-02-19T12:40:45.598Z,84.44
2023-02-19T12:43:23.271Z,84.06
2023-02-19T12:46:18.497Z,83.32
2023-02-19T12:48:52.956Z,83.28
2023-02-19T12:51:32.207Z,83.99
2023-02-19T12:53:59.114Z,81.94
2023-02-19T12:56:34.066Z,81.26
2023-02-19T12:59:39.540Z,81.73
2023-02-19T13:02:09.991Z,82.65
2023-02-19T13:04:55.955Z,80.00
2023-02-19T13:07:35.780Z,82.62
2023-02-19T13:10:17.812Z,83.34
2023-02-19T13:12:48.539Z,82.29
2023-02-19T13:15:21.752Z,81.36
2023-02-19T13:17:52.405Z,83.28
2023-02-19T13:20:35.258Z,83.89
2023-02-19T13:23:36.925Z,83.61
2023-02-19T13:26:08.019Z,82.24
2023-02-19T13:29:15.965Z,84.16
2023-02-19T13:32:05.259Z,84.24
2023-02-19T13:34:56.146Z,84.17
2023-02-19T13:37:27.466Z,84.00
2023-02-19T13:40:06.088Z,82.18
2023-02-19T13:42:51.075Z,80.09
2023-02-19T13:45:38.021Z,82.33
2023-02-19T13:48:23.591Z,78.51
2023-02-19T13:51:36.527Z,79.11
2023-02-19T13:54:40.126Z,79.31
2023-02-19T13:57:24.140Z,77.92
2023-02-19T13:59:57.428Z,77.39
2023-02-19T14:02:39.544Z,77.16
2023-02-19T14:05:11.081Z,77.50
2023-02-19T14:07:55.447Z,77.74
2023-02-19T14:11:01.978Z,77.10
2023-02-19T14:13:47.771Z,74.68
2023-02-19T14:16:37.350Z,77.64
2023-02-19T14:19:14.387Z,76.97
2023-02-19T14:21:46.049Z,76.68
2023-02-19T14:24:20.079Z,79.37
2023-02-19T14:26:51.136Z,81.20
2023-02-19T14:29:18.942Z,79.08
2023-02-19T14:31:47.180Z,79.07
2023-02-19T14:34:25.272Z,76.98
2023-02-19T14:37:01.279Z,74.79
2023-02-19T14:39:33.374Z,75.69
2023-02-19T14:42:06.392Z,77.65
2023-02-19T14:44:47.756Z,80.84
2023-02-19T14:47:21.274Z,80.19
2023-02-19T14:50:04.203Z,82.53
2023-02-19T14:52:43.773Z,79.63
2023-02-19T14:55:34.833Z,77.70
2023-02-19T14:58:16.970Z,77.95
2023-02-19T15:00:44.483Z,79.20
2023-02-19T15:03:37.137Z,80.81
2023-02-19T15:06:12.189Z,82.77
2023-02-19T15:08:44.862Z,82.30
2023-02-19T15:11:18.779Z,81.40
2023-02-19T15:13:58.397Z,81.59
2023-02-19T15:16:30.581Z,81.78
2023-02-19T15:19:00.923Z,81.53
2023-02-19T15:21:33.586Z,83.03
2023-02-19T15:24:04.664Z,83.67
2023-02-19T15:26:41.357Z,83.83
2023-02-19T15:29:14.782Z,82.89
2023-02-19T15:31:56.954Z,83.13
2023-02-19T15:34:26.532Z,82.94
2023-02-19T15:37:00.548Z,82.63
2023-02-19T15:39:32.331Z,83.74
2023-02-19T15:42:03.672Z,84.02
2023-02-19T15:44:49.401Z,83.56
2023-02-19T15:47:20.916Z,84.55
2023-02-19T15:50:01.057Z,85.32
2023-02-19T15:52:44.570Z,85.37
2023-02-19T15:55:48.262Z,85.41
2023-02-19T15:58:39.832Z,85.99
2023-02-19T16:01:21.186Z,85.31
2023-02-19T16:03:48.978Z,84.69
2023-02-19T16:06:18.005Z,84.68
2023-02-19T16:09:01.568Z,85.04
2023-02-19T16:11:39.344Z,85.18
2023-02-19T16:14:38.537Z,85.61
2023-02-19T16:17:11.399Z,84.85
2023-02-19T16:19:41.918Z,84.60
2023-02-19T16:22:15.490Z,84.17
2023-02-19T16:24:48.748Z,84.63
2023-02-19T16:27:31.205Z,84.68
2023-02-19T16:30:02.600Z,85.42
2023-02-19T16:32:29.745Z,85.73
2023-02-19T16:34:56.974Z,86.10
2023-02-19T16:37:38.478Z,86.38
2023-02-19T16:40:08.693Z,86.48
2023-02-19T16:43:01.972Z,86.40
2023-02-19T16:45:29.401Z,86.36
2023-02-19T16:47:56.584Z,86.27
2023-02-19T16:50:26.399Z,86.20
2023-02-19T16:52:59.101Z,86.18
2023-02-19T16:55:27.955Z,86.40
2023-02-19T16:57:55.407Z,86.43
2023-02-19T17:00:27.807Z,86.82
2023-02-19T17:03:01.663Z,87.26
2023-02-19T17:05:32.047Z,87.62
2023-02-19T17:07:59.027Z,87.58
2023-02-19T17:10:26.887Z,87.64
2023-02-19T17:12:55.210Z,87.59
2023-02-19T17:15:23.031Z,86.54
2023-02-19T17:17:52.378Z,86.11
2023-02-19T17:20:28.965Z,86.26
2023-02-19T17:22:56.414Z,85.79
2023-02-19T17:25:23.526Z,85.19
2023-02-19T17:27:50.565Z,84.67
2023-02-19T17:30:30.143Z,85.14
2023-02-19T17:32:58.597Z,86.02
2023-02-19T17:35:25.959Z,85.87
2023-02-19T17:37:53.585Z,86.25
2023-02-19T17:40:32.783Z,84.85
2023-02-19T17:43:02.389Z,83.21
2023-02-19T17:45:29.708Z,85.05
2023-02-19T17:47:57.741Z,84.06
2023-02-19T17:50:28.419Z,83.82
2023-02-19T17:52:56.581Z,83.35
2023-02-19T17:55:24.436Z,83.48
2023-02-19T17:57:55.821Z,84.20
2023-02-19T18:00:26.847Z,84.54
2023-02-19T18:02:54.193Z,85.31
2023-02-19T18:05:25.567Z,85.28
2023-02-19T18:07:56.383Z,85.16
2023-02-19T18:10:25.455Z,84.68
2023-02-19T18:12:52.420Z,84.21
2023-02-19T18:15:22.793Z,83.38
2023-02-19T18:17:50.085Z,84.98
2023-02-19T18:20:20.867Z,84.47
2023-02-19T18:22:52.197Z,84.76
2023-02-19T18:25:23.110Z,84.31
2023-02-19T18:27:51.242Z,85.09
2023-02-19T18:30:22.174Z,85.36
2023-02-19T18:32:51.336Z,85.43
2023-02-19T18:35:20.702Z,85.36
2023-02-19T18:37:55.929Z,85.83
2023-02-19T18:40:28.154Z,84.97
2023-02-19T18:42:55.459Z,83.30
2023-02-19T18:45:22.870Z,82.63
2023-02-19T18:47:50.519Z,81.76
2023-02-19T18:50:19.286Z,80.75
2023-02-19T18:52:48.674Z,80.67
2023-02-19T18:55:16.183Z,80.48
2023-02-19T18:57:43.934Z,80.57
2023-02-19T19:00:19.193Z,79.91
2023-02-19T19:02:49.721Z,79.92
2023-02-19T19:05:25.344Z,78.22
2023-02-19T19:07:58.681Z,79.05
2023-02-19T19:10:27.025Z,78.71
2023-02-19T19:12:54.617Z,79.42
2023-02-19T19:15:23.074Z,81.03
2023-02-19T19:17:51.200Z,82.16
2023-02-19T19:20:25.640Z,82.67
2023-02-19T19:22:55.892Z,82.91
2023-02-19T19:25:26.183Z,82.34
2023-02-19T19:27:58.846Z,83.42
2023-02-19T19:30:26.293Z,84.12
2023-02-19T19:32:54.075Z,83.58
2023-02-19T19:35:23.675Z,84.36
2023-02-19T19:37:51.019Z,84.40
2023-02-19T19:40:23.274Z,84.92
2023-02-19T19:42:52.881Z,85.11
2023-02-19T19:45:28.826Z,85.33
2023-02-19T19:47:56.426Z,85.35
2023-02-19T19:50:24.771Z,85.61
2023-02-19T19:52:53.483Z,85.79
2023-02-19T19:55:21.519Z,85.90
2023-02-19T19:57:49.801Z,85.52
2023-02-19T20:00:18.880Z,85.72
2023-02-19T20:02:46.473Z,85.83
2023-02-19T20:05:15.107Z,85.02
2023-02-19T20:07:42.895Z,84.64
2023-02-19T20:10:12.397Z,84.76
2023-02-19T20:12:40.231Z,84.91
2023-02-19T20:15:08.066Z,84.64
2023-02-19T20:17:35.383Z,84.93
2023-02-19T20:20:02.814Z,84.81
2023-02-19T20:22:29.949Z,84.51
2023-02-19T20:24:57.579Z,84.02
2023-02-19T20:27:24.804Z,83.93
2023-02-19T20:29:52.057Z,83.51
2023-02-19T20:32:19.566Z,82.61
2023-02-19T20:34:48.040Z,82.98
2023-02-19T20:37:15.400Z,82.82
2023-02-19T20:39:43.075Z,82.44
2023-02-19T20:42:10.497Z,82.60
2023-02-19T20:44:37.487Z,82.52
2023-02-19T20:47:04.670Z,82.34
2023-02-19T20:49:32.041Z,82.26
2023-02-19T20:52:04.266Z,81.97
2023-02-19T20:54:33.447Z,82.85
2023-02-19T20:57:04.308Z,83.16
2023-02-19T20:59:38.093Z,82.66
2023-02-19T21:02:14.132Z,82.73
2023-02-19T21:04:41.148Z,82.98
2023-02-19T21:07:07.952Z,82.56
2023-02-19T21:09:35.792Z,81.93
2023-02-19T21:12:02.942Z,81.89
2023-02-19T21:14:30.190Z,82.41
2023-02-19T21:16:57.238Z,81.53
2023-02-19T21:19:24.466Z,82.32
2023-02-19T21:21:51.618Z,81.84
2023-02-19T21:24:18.625Z,81.12
2023-02-19T21:26:45.983Z,82.12
2023-02-19T21:29:18.453Z,81.85
2023-02-19T21:31:48.863Z,81.58
2023-02-19T21:34:20.128Z,81.98
2023-02-19T21:36:47.336Z,82.22
2023-02-19T21:39:17.976Z,82.41
2023-02-19T21:41:45.063Z,81.76
2023-02-19T21:44:13.103Z,81.22
2023-02-19T21:46:40.333Z,81.11
2023-02-19T21:49:07.384Z,80.68
2023-02-19T21:51:37.975Z,81.43
2023-02-19T21:54:06.429Z,81.30
2023-02-19T21:56:36.399Z,80.44
2023-02-19T21:59:04.095Z,79.92
2023-02-19T22:01:37.968Z,80.27
2023-02-19T22:04:10.044Z,80.01
2023-02-19T22:06:38.998Z,80.27
2023-02-19T22:09:09.110Z,80.21
2023-02-19T22:11:36.315Z,79.84
2023-02-19T22:14:03.567Z,80.48
2023-02-19T22:16:30.887Z,80.78
2023-02-19T22:18:59.191Z,80.62
2023-02-19T22:21:29.964Z,80.72
2023-02-19T22:24:02.096Z,81.25
2023-02-19T22:26:36.033Z,81.05
2023-02-19T22:29:06.488Z,80.40
2023-02-19T22:31:34.285Z,80.77
2023-02-19T22:34:01.704Z,79.52
2023-02-19T22:36:31.076Z,80.55
2023-02-19T22:38:59.770Z,80.25
2023-02-19T22:41:26.982Z,80.26
2023-02-19T22:43:54.449Z,79.46
2023-02-19T22:46:24.837Z,80.60
2023-02-19T22:48:51.999Z,79.62
2023-02-19T22:51:22.178Z,79.05
2023-02-19T22:53:54.804Z,80.32
2023-02-19T22:56:24.453Z,79.10
2023-02-19T22:58:52.315Z,79.12
2023-02-19T23:01:19.747Z,79.09
2023-02-19T23:03:48.085Z,78.97
2023-02-19T23:06:16.668Z,77.65
2023-02-19T23:08:44.009Z,79.15
2023-02-19T23:11:12.653Z,79.04
2023-02-19T23:13:42.730Z,77.77
2023-02-19T23:16:10.088Z,78.25
2023-02-19T23:18:37.375Z,79.11
2023-02-19T23:21:05.031Z,78.46
2023-02-19T23:23:32.032Z,78.18
2023-02-19T23:25:58.980Z,78.45
2023-02-19T23:28:25.962Z,79.70
2023-02-19T23:30:53.188Z,77.74
2023-02-19T23:33:20.284Z,78.54
2023-02-19T23:35:49.559Z,78.70
2023-02-19T23:38:17.800Z,78.88
2023-02-19T23:40:45.012Z,77.88
2023-02-19T23:43:11.872Z,78.19
2023-02-19T23:45:38.796Z,77.40
2023-02-19T23:48:05.663Z,77.35
2023-02-19T23:50:32.721Z,77.96
2023-02-19T23:52:59.721Z,78.63
2023-02-19T23:55:26.874Z,79.18
2023-02-19T23:57:54.083Z,80.14
